createdAt,value
2019-02-23T00:03:52.300Z,79
2019-02-23T00:09:19.867Z,79
2019-02-23T00:14:47.463Z,79
2019-02-23T00:43:53.226Z,79
2019-02-23T00:47:34.488Z,79
2019-02-23T00:53:03.043Z,79
2019-02-23T00:58:31.550Z,79
2019-02-23T01:04:04.933Z,79
2019-02-23T01:09:27.577Z,79
2019-02-23T01:14:55.159Z,79
2019-02-23T01:20:23.685Z,79
2019-02-23T01:25:52.222Z,79
2019-02-23T01:31:20.680Z,79
2019-02-23T01:36:48.229Z,79
2019-02-23T01:42:16.657Z,79
2019-02-23T01:47:45.241Z,79
2019-02-23T01:53:12.760Z,78
2019-02-23T01:58:42.613Z,78
2019-02-23T02:04:08.660Z,78
2019-02-23T02:09:36.195Z,78
2019-02-23T02:15:03.657Z,78
2019-02-23T02:20:32.139Z,78
2019-02-23T02:26:00.724Z,78
2019-02-23T02:31:28.156Z,78
2019-02-23T02:36:55.568Z,78
2019-02-23T02:42:24.106Z,78
2019-02-23T02:47:51.655Z,78
2019-02-23T02:53:20.273Z,78
2019-02-23T02:58:48.500Z,78
2019-02-23T03:04:15.982Z,78
2019-02-23T03:09:44.635Z,78
2019-02-23T03:15:13.619Z,78
2019-02-23T03:20:41.372Z,78
2019-02-23T03:26:08.873Z,78
2019-02-23T03:31:37.402Z,78
2019-02-23T03:37:04.819Z,78
2019-02-23T03:42:32.543Z,78
2019-02-23T03:47:59.838Z,78
2019-02-23T03:53:28.440Z,78
2019-02-23T03:58:56.707Z,78
2019-02-23T04:04:25.167Z,78
2019-02-23T04:09:53.779Z,78
2019-02-23T04:15:22.193Z,78
2019-02-23T04:21:00.914Z,78
2019-02-23T04:26:17.058Z,78
2019-02-23T04:31:44.514Z,78
2019-02-23T04:37:12.957Z,78
2019-02-23T04:42:41.410Z,78
2019-02-23T04:48:09.850Z,78
2019-02-23T04:53:37.351Z,78
2019-02-23T04:59:05.779Z,78
2019-02-23T05:04:33.257Z,78
2019-02-23T05:10:00.849Z,77
2019-02-23T05:15:28.191Z,77
2019-02-23T05:42:47.532Z,77
2019-02-23T05:48:15.974Z,77
2019-02-23T05:53:43.377Z,77
2019-02-23T05:59:10.854Z,77
2019-02-23T06:04:38.325Z,77
2019-02-23T06:10:06.859Z,77
2019-02-23T06:15:35.226Z,77
2019-02-23T06:21:03.707Z,77
2019-02-23T06:26:32.270Z,77
2019-02-23T06:32:00.641Z,77
2019-02-23T06:37:29.074Z,77
2019-02-23T06:42:57.855Z,77
2019-02-23T06:48:23.945Z,77
2019-02-23T06:53:52.509Z,77
2019-02-23T06:59:19.865Z,77
2019-02-23T07:04:47.441Z,77
2019-02-23T07:10:14.817Z,77
2019-02-23T07:15:43.293Z,77
2019-02-23T07:21:11.764Z,77
2019-02-23T07:26:39.316Z,77
2019-02-23T07:32:07.723Z,77
2019-02-23T07:37:35.080Z,78
2019-02-23T07:43:02.679Z,78
2019-02-23T07:48:30.996Z,77
2019-02-23T07:53:59.521Z,78
2019-02-23T07:59:27.029Z,78
2019-02-23T08:04:55.950Z,78
2019-02-23T08:10:22.864Z,78
2019-02-23T08:15:50.425Z,78
2019-02-23T08:21:17.843Z,78
2019-02-23T08:26:46.418Z,78
2019-02-23T08:32:13.786Z,78
2019-02-23T08:37:41.277Z,78
2019-02-23T08:43:08.871Z,77
2019-02-23T08:48:36.284Z,77
2019-02-23T08:54:03.775Z,78
2019-02-23T08:59:31.528Z,77
2019-02-23T09:04:58.835Z,77
2019-02-23T09:10:26.617Z,77
2019-02-23T09:15:53.824Z,77
2019-02-23T09:21:21.507Z,77
2019-02-23T09:26:49.891Z,77
2019-02-23T09:32:18.470Z,77
2019-02-23T09:37:46.985Z,77
2019-02-23T09:43:17.731Z,77
2019-02-23T09:48:43.174Z,77
2019-02-23T09:54:10.780Z,77
2019-02-23T09:59:40.123Z,77
2019-02-23T10:05:07.863Z,77
2019-02-23T10:10:36.415Z,77
2019-02-23T10:16:05.087Z,76
2019-02-23T10:21:32.665Z,76
2019-02-23T10:27:01.361Z,76
2019-02-23T10:32:28.894Z,76
2019-02-23T10:54:22.359Z,76
2019-02-23T11:05:17.635Z,75
2019-02-23T11:10:45.349Z,75
2019-02-23T11:16:13.039Z,75
2019-02-23T11:21:40.622Z,75
2019-02-23T11:27:09.321Z,75
2019-02-23T11:32:36.964Z,75
2019-02-23T11:38:04.788Z,75
2019-02-23T11:43:33.398Z,75
2019-02-23T11:49:08.039Z,75
2019-02-23T11:54:29.788Z,75
2019-02-23T11:59:57.503Z,75
2019-02-23T12:05:26.197Z,74
2019-02-23T12:10:54.901Z,74
2019-02-23T12:16:22.607Z,74
2019-02-23T12:21:50.311Z,74
2019-02-23T12:27:19.187Z,74
2019-02-23T12:32:46.736Z,74
2019-02-23T12:38:15.532Z,74
2019-02-23T12:43:43.214Z,74
2019-02-23T12:49:11.018Z,74
2019-02-23T12:54:38.607Z,73
2019-02-23T13:00:07.554Z,73
2019-02-23T13:05:35.103Z,73
2019-02-23T13:11:02.947Z,73
2019-02-23T13:16:30.554Z,73
2019-02-23T13:21:58.329Z,73
2019-02-23T13:27:27.114Z,73
2019-02-23T13:32:55.881Z,73
2019-02-23T13:38:24.680Z,73
2019-02-23T13:43:53.435Z,73
2019-02-23T13:49:21.321Z,73
2019-02-23T13:54:48.995Z,73
2019-02-23T14:00:16.843Z,73
2019-02-23T14:05:45.564Z,72
2019-02-23T14:11:13.421Z,72
2019-02-23T14:16:41.163Z,72
2019-02-23T14:22:09.955Z,72
2019-02-23T14:27:37.829Z,72
2019-02-23T14:33:06.633Z,72
2019-02-23T14:38:35.510Z,72
2019-02-23T14:44:03.335Z,72
2019-02-23T14:49:32.110Z,72
2019-02-23T14:55:01.025Z,72
2019-02-23T15:00:28.705Z,72
2019-02-23T15:05:57.489Z,72
2019-02-23T15:11:26.307Z,72
2019-02-23T15:16:55.091Z,72
2019-02-23T15:22:23.890Z,72
2019-02-23T15:27:51.653Z,72
2019-02-23T15:33:28.738Z,72
2019-02-23T15:38:49.275Z,72
2019-02-23T15:44:23.079Z,72
2019-02-23T15:49:44.860Z,72
2019-02-23T15:55:12.608Z,72
2019-02-23T16:00:40.422Z,72
2019-02-23T16:06:08.128Z,72
2019-02-23T16:11:35.881Z,72
2019-02-23T16:17:03.610Z,72
2019-02-23T16:22:31.396Z,72
2019-02-23T16:27:59.118Z,72
2019-02-23T16:33:26.845Z,72
2019-02-23T16:38:54.534Z,73
2019-02-23T16:44:23.339Z,73
2019-02-23T16:49:51.946Z,73
2019-02-23T16:55:20.720Z,73
2019-02-23T17:00:48.311Z,73
2019-02-23T17:06:16.009Z,73
2019-02-23T17:11:44.794Z,73
2019-02-23T17:17:12.974Z,73
2019-02-23T17:22:41.041Z,73
2019-02-23T17:28:08.661Z,73
2019-02-23T17:33:37.271Z,73
2019-02-23T17:39:05.970Z,73
2019-02-23T17:44:33.544Z,73
2019-02-23T17:50:02.581Z,73
2019-02-23T17:55:29.840Z,73
2019-02-23T18:00:57.420Z,73
2019-02-23T18:06:25.052Z,73
2019-02-23T18:11:53.632Z,73
2019-02-23T18:17:21.626Z,73
2019-02-23T18:22:49.851Z,73
2019-02-23T18:28:19.366Z,73
2019-02-23T18:33:47.060Z,73
2019-02-23T18:39:15.663Z,73
2019-02-23T18:44:44.279Z,73
2019-02-23T18:50:13.403Z,73
2019-02-23T18:55:41.520Z,73
2019-02-23T19:01:09.014Z,73
2019-02-23T19:06:36.608Z,73
2019-02-23T19:12:05.227Z,73
2019-02-23T19:17:33.807Z,73
2019-02-23T19:23:01.373Z,73
2019-02-23T19:28:29.952Z,73
2019-02-23T19:33:57.560Z,73
2019-02-23T19:39:26.221Z,73
2019-02-23T19:44:55.753Z,73
2019-02-23T19:50:22.326Z,73
2019-02-23T19:55:49.871Z,73
2019-02-23T20:01:17.454Z,73
2019-02-23T20:06:44.980Z,73
2019-02-23T20:12:12.585Z,73
2019-02-23T20:17:41.107Z,73
2019-02-23T20:23:08.690Z,73
2019-02-23T20:28:36.235Z,73
2019-02-23T20:34:03.799Z,73
2019-02-23T20:39:32.341Z,73
2019-02-23T20:45:00.514Z,73
2019-02-23T20:50:28.395Z,73
2019-02-23T20:55:56.986Z,73
2019-02-23T21:01:25.565Z,73
2019-02-23T21:06:53.013Z,73
2019-02-23T21:12:20.619Z,73
2019-02-23T21:17:48.151Z,73
2019-02-23T21:23:15.666Z,73
2019-02-23T21:28:44.317Z,73
2019-02-23T21:39:40.605Z,73
2019-02-23T21:45:07.743Z,73
2019-02-23T21:50:36.253Z,73
2019-02-23T21:56:04.778Z,73
2019-02-23T22:01:33.273Z,73
2019-02-23T22:07:01.910Z,73
2019-02-23T22:12:30.393Z,73
2019-02-23T22:23:26.377Z,73
2019-02-23T22:28:54.903Z,73
2019-02-23T22:34:22.434Z,73
2019-02-23T22:39:49.828Z,73
2019-02-23T22:45:18.284Z,73
2019-02-23T22:50:44.881Z,73
2019-02-23T22:56:12.330Z,73
2019-02-23T23:01:41.117Z,73
2019-02-23T23:07:09.347Z,73
2019-02-23T23:12:36.853Z,73
2019-02-23T23:18:04.461Z,73
2019-02-23T23:23:33.270Z,73
2019-02-23T23:29:00.498Z,73
2019-02-23T23:34:28.762Z,73
2019-02-23T23:39:57.327Z,73
2019-02-23T23:45:25.915Z,73
2019-02-23T23:50:54.410Z,73
2019-02-23T23:56:22.687Z,73
